Latest Weather Observations for Rolleston Airport

IDQ60801

Issued at 3:35 pm EST Friday 1 August 2014 (issued every 30 minutes, with the page automatically refreshed every 10 minutes)

About weather observations | Map of weather stations | Latest weather observations for QLD | Other Formats
Station Details ID: 035129 Name: ROLLESTON AIRPORT Lat: -24.46 Lon: 148.63 Height: 219.45 m
Data from the previous 72 hours. | See also: Recent months at Rolleston Airport
Date/Time
EST
Temp
°C
App
Temp
°C
Dew
Point
Rel
Hum
%
Delta-T
°C
Wind Press
QNH
hPa
Press
MSL
hPa
Rain
since 9 am
mm
Dir
 
Spd
km/h
Gust
km/h
Spd
kts
Gust
kts
01/03:30pm 27.2 23.6 4.9 24 11.5 WNW 13 28 7 15 1014.5 - 0.0
01/03:00pm 26.9 23.7 5.2 25 11.2 W 11 20 6 11 1014.5 1014.2 0.0
01/02:30pm 27.3 23.8 5.6 25 11.3 WNW 13 24 7 13 1014.8 - 0.0
01/02:00pm 26.7 23.0 6.2 27 10.8 NNW 15 20 8 11 1015.0 1014.7 0.0
01/01:30pm 26.6 25.1 9.0 33 9.7 NNW 7 15 4 8 1015.4 - 0.0
01/01:00pm 26.3 22.7 8.3 32 9.8 NNW 17 28 9 15 1016.1 1015.8 0.0
01/12:30pm 24.9 22.2 10.4 40 8.1 NNW 15 24 8 13 1017.0 - 0.0
01/12:00pm 24.6 22.0 11.9 45 7.3 NW 17 30 9 16 1017.6 1017.3 0.0
01/11:30am 23.4 21.2 12.1 49 6.5 NW 15 24 8 13 1018.1 - 0.0
01/11:00am 23.4 21.5 13.0 52 6.0 NNW 15 28 8 15 1018.4 1018.1 0.0
01/10:30am 21.9 20.5 13.3 58 5.0 N 13 22 7 12 1018.6 - 0.0
01/10:00am 20.9 19.3 12.8 60 4.6 NNW 13 20 7 11 1019.1 1018.8 0.0
01/09:30am 19.1 17.4 12.4 65 3.8 N 13 22 7 12 1019.4 - 0.0
01/09:00am 18.1 17.4 12.1 68 3.3 NNW 7 17 4 9 1019.3 1019.2 0.0
01/08:30am 16.4 15.4 11.1 71 2.9 N 7 13 4 7 1019.1 - 0.0
01/08:00am 14.6 14.4 10.6 77 2.1 N 2 6 1 3 1019.0 1018.8 0.0
01/07:30am 11.3 11.1 9.0 86 1.2 CALM 0 2 0 1 1018.8 - 0.0
01/07:00am 7.9 6.3 6.4 90 0.7 SSE 4 4 2 2 1018.5 1018.3 0.0
01/06:30am 8.4 6.8 6.4 87 0.9 SE 4 6 2 3 1018.4 - 0.0
01/06:00am 9.8 8.5 7.6 86 1.1 SSE 4 6 2 3 1017.9 1017.7 0.0
01/05:30am 11.8 11.8 9.7 87 1.1 CALM 0 4 0 2 1017.5 - 0.0
01/05:00am 9.8 8.0 7.2 84 1.2 SSE 6 7 3 4 1017.5 1017.3 0.0
01/04:30am 10.8 9.2 8.0 83 1.4 S 6 7 3 4 1017.3 - 0.0
01/04:00am 11.1 9.4 8.3 83 1.4 SE 7 9 4 5 1017.2 1017.0 0.0
01/03:30am 11.1 9.5 7.8 80 1.6 S 6 9 3 5 1017.3 - 0.0
01/03:00am 12.0 10.9 7.1 72 2.4 WSW 2 6 1 3 1017.3 1017.1 0.0
01/02:30am 14.2 13.0 9.4 73 2.5 N 6 7 3 4 1017.2 - 0.0
01/02:00am 15.0 13.9 9.8 71 2.7 NW 6 9 3 5 1017.5 1017.3 0.0
01/01:30am 16.0 14.4 10.1 68 3.1 N 9 13 5 7 1017.7 - 0.0
01/01:00am 15.9 14.2 9.8 67 3.2 N 9 15 5 8 1017.8 1017.6 0.0
01/12:30am 15.9 14.1 9.3 65 3.4 N 9 13 5 7 1017.9 - 0.0
01/12:00am 16.3 14.8 9.3 63 3.7 N 7 13 4 7 1018.0 1017.8 0.0
 
Date/Time
EST
Temp
°C
App
Temp
°C
Dew
Point
Rel
Hum
%
Delta-T
°C
Wind Press
QNH
hPa
Press
MSL
hPa
Rain
since 9 am
mm
Dir
 
Spd
km/h
Gust
km/h
Spd
kts
Gust
kts
31/11:30pm 17.3 15.6 10.0 62 3.9 N 9 17 5 9 1018.0 - 0.0
31/11:00pm 18.0 15.9 9.9 59 4.3 N 11 17 6 9 1018.1 1017.9 0.0
31/10:30pm 18.2 16.0 9.3 56 4.7 N 11 17 6 9 1018.1 - 0.0
31/10:00pm 17.6 14.8 8.5 55 4.7 N 13 19 7 10 1018.1 1017.9 0.0
31/09:30pm 15.8 13.6 5.4 50 5.0 N 6 7 3 4 1018.0 - 0.0
31/09:00pm 16.0 14.6 3.4 43 5.8 CALM 0 19 0 10 1017.7 1017.5 0.0
31/08:30pm 18.9 17.9 5.7 42 6.5 CALM 0 0 0 0 1017.5 - 0.0
31/08:00pm 19.3 18.3 5.7 41 6.8 CALM 0 0 0 0 1017.3 1017.1 0.0
31/07:30pm 18.5 16.8 5.7 43 6.3 NW 4 6 2 3 1017.1 - 0.0
31/07:00pm 19.5 17.7 5.6 40 6.9 NNW 4 6 2 3 1016.8 1016.6 0.0
31/06:30pm 19.4 17.5 4.7 38 7.2 NNW 4 6 2 3 1016.4 - 0.0
31/06:00pm 20.7 18.3 4.3 34 8.0 NW 6 7 3 4 1016.0 1015.9 0.0
31/05:30pm 22.9 20.4 4.9 31 9.0 NNW 7 11 4 6 1015.9 - 0.0
31/05:00pm 24.5 21.7 5.3 29 9.8 N 9 13 5 7 1015.9 1015.8 0.0
31/04:30pm 25.4 23.2 6.1 29 10.1 NW 7 13 4 7 1015.9 - 0.0
31/04:00pm 25.1 22.8 5.8 29 10.0 NW 7 13 4 7 1016.0 1015.9 0.0
31/03:30pm 25.3 22.3 6.0 29 10.0 NW 11 19 6 10 1016.2 - 0.0
31/03:00pm 25.0 22.4 6.2 30 9.8 N 9 26 5 14 1016.5 1016.4 0.0
31/02:30pm 25.5 23.3 6.2 29 10.1 N 7 17 4 9 1016.9 - 0.0
31/02:00pm 24.6 22.3 5.9 30 9.7 NW 7 13 4 7 1017.2 1017.0 0.0
31/01:30pm 24.4 22.4 6.2 31 9.4 N 6 11 3 6 1017.8 - 0.0
31/01:00pm 24.5 21.8 5.8 30 9.6 N 9 26 5 14 1018.3 1018.1 0.0
31/12:30pm 24.5 21.9 6.3 31 9.5 N 9 19 5 10 1019.2 - 0.0
31/12:00pm 23.8 22.6 8.2 37 8.3 NNW 4 11 2 6 1020.0 1019.9 0.0
31/11:30am 22.1 20.0 8.2 41 7.4 WNW 9 15 5 8 1020.6 - 0.0
31/11:00am 20.9 18.4 8.2 44 6.7 N 11 19 6 10 1021.2 1021.1 0.0
31/10:30am 20.8 19.4 8.8 46 6.4 NW 6 9 3 5 1021.9 - 0.0
31/10:00am 19.4 18.3 8.4 49 5.7 NNW 4 9 2 5 1022.0 1021.8 0.0
31/09:30am 18.1 16.8 7.5 50 5.4 NE 4 9 2 5 1022.4 - 0.0
31/09:00am 16.5 15.2 5.8 49 5.2 SSE 2 6 1 3 1022.3 1022.1 0.0
31/08:30am 13.7 11.8 5.1 56 4.1 SE 4 4 2 2 1022.1 - 0.0
31/08:00am 9.3 6.6 2.4 62 2.9 SSE 6 7 3 4 1021.8 1021.6 0.0
31/07:30am 8.1 6.4 1.9 65 2.6 CALM 0 4 0 2 1021.7 - 0.0
31/07:00am 6.7 4.9 1.2 68 2.2 CALM 0 0 0 0 1021.5 1021.3 0.0
31/06:30am 6.9 4.5 2.0 71 2.0 SSE 4 7 2 4 1021.3 - 0.0
31/06:00am 7.3 4.3 2.0 69 2.2 SSE 7 7 4 4 1021.0 1020.9 0.0
31/05:30am 6.6 3.2 1.7 71 2.0 SSE 9 9 5 5 1020.8 - 0.0
31/05:00am 7.4 4.7 2.7 72 2.0 SSE 6 7 3 4 1020.5 1020.4 0.0
31/04:30am 7.3 5.1 3.2 75 1.8 SSE 4 6 2 3 1020.4 - 0.0
31/04:00am 6.3 3.8 1.8 73 1.8 S 4 6 2 3 1020.4 1020.3 0.0
31/03:30am 8.6 6.4 3.2 69 2.3 SSE 4 6 2 3 1020.2 - 0.0
31/03:00am 8.9 6.2 3.7 70 2.3 SSE 7 9 4 5 1020.2 1020.1 0.0
31/02:30am 10.4 9.4 5.4 71 2.3 CALM 0 0 0 0 1020.2 - 0.0
31/02:00am 9.4 8.0 3.6 67 2.5 CALM 0 0 0 0 1020.4 1020.3 0.0
31/01:30am 10.3 9.0 4.2 66 2.7 CALM 0 0 0 0 1020.5 - 0.0
31/01:00am 10.7 9.3 3.7 62 3.1 CALM 0 0 0 0 1020.6 1020.5 0.0
31/12:30am 10.9 9.5 3.7 61 3.2 CALM 0 0 0 0 1020.8 - 0.0
31/12:00am 12.1 10.4 4.1 58 3.6 N 2 4 1 2 1020.7 1020.6 0.0
 
Date/Time
EST
Temp
°C
App
Temp
°C
Dew
Point
Rel
Hum
%
Delta-T
°C
Wind Press
QNH
hPa
Press
MSL
hPa
Rain
since 9 am
mm
Dir
 
Spd
km/h
Gust
km/h
Spd
kts
Gust
kts
30/11:30pm 11.8 9.6 3.3 56 3.8 N 4 7 2 4 1020.9 - 0.0
30/11:00pm 12.6 11.3 4.1 56 3.9 CALM 0 7 0 4 1020.7 1020.6 0.0
30/10:30pm 12.9 11.6 4.3 56 4.0 CALM 0 0 0 0 1020.5 - 0.0
30/10:00pm 14.6 13.2 5.7 55 4.3 SE 2 4 1 2 1020.6 1020.5 0.0
30/09:30pm 14.5 12.6 4.8 52 4.6 E 4 6 2 3 1020.7 - 0.0
30/09:00pm 16.6 14.1 4.6 45 5.7 E 7 11 4 6 1020.5 1020.4 0.0
30/08:30pm 17.4 14.4 4.0 41 6.4 E 9 11 5 6 1020.3 - 0.0
30/08:00pm 19.6 16.4 4.9 38 7.2 E 11 13 6 7 1020.0 1019.9 0.0
30/07:30pm 19.9 16.6 4.8 37 7.4 E 11 13 6 7 1019.9 - 0.0
30/07:00pm 18.8 17.6 4.6 39 6.9 CALM 0 0 0 0 1019.7 1019.6 0.0
30/06:30pm 21.1 20.1 5.5 36 7.8 CALM 0 0 0 0 1019.3 - 0.0
30/06:00pm 21.8 20.4 5.3 34 8.3 S 2 4 1 2 1019.1 1018.9 0.0
30/05:30pm 23.4 21.6 5.3 31 9.2 SSW 4 6 2 3 1019.0 - 0.0
30/05:00pm 25.3 23.4 5.0 27 10.3 W 4 6 2 3 1018.8 1018.6 0.0
30/04:30pm 25.6 23.8 5.2 27 10.5 SW 4 7 2 4 1018.8 - 0.0
30/04:00pm 25.3 23.5 5.5 28 10.2 ENE 4 7 2 4 1018.7 1018.5 0.0
30/03:30pm 25.2 22.6 5.9 29 10.0 NE 9 15 5 8 1018.7 - 0.0
30/03:00pm 25.1 23.7 5.3 28 10.1 E 2 6 1 3 1018.8 1018.6 0.0
30/02:30pm 25.2 23.2 6.4 30 9.8 S 6 9 3 5 1019.1 - 0.0
30/02:00pm 24.7 22.1 6.0 30 9.7 NE 9 17 5 9 1019.5 1019.4 0.0
30/01:30pm 24.5 23.0 6.7 32 9.3 NE 4 13 2 7 1020.0 - 0.0
30/01:00pm 23.9 22.5 7.1 34 8.8 SE 4 7 2 4 1020.6 1020.5 0.0
30/12:30pm 23.7 21.8 6.9 34 8.8 NNE 6 15 3 8 1021.3 - 0.0
30/12:00pm 23.3 20.9 7.0 35 8.5 NNW 9 15 5 8 1022.2 1022.0 0.0
30/11:30am 22.2 19.4 6.8 37 8.0 N 11 19 6 10 1022.8 - 0.0
30/11:00am 21.7 18.4 6.4 37 7.8 N 13 20 7 11 1023.4 1023.3 0.0
30/10:30am 21.2 17.7 7.4 41 7.2 N 15 24 8 13 1023.7 - 0.0
30/10:00am 19.8 17.6 7.9 46 6.2 NNW 9 17 5 9 1024.2 1024.1 0.0
30/09:30am 18.2 16.4 7.0 48 5.7 NNW 6 11 3 6 1024.5 - 0.0
30/09:00am 14.9 13.6 6.0 55 4.3 N 2 6 1 3 1024.4 1024.3 0.0
30/08:30am 11.9 10.7 4.6 61 3.4 CALM 0 2 0 1 1024.3 - 0.0
30/08:00am 10.0 8.7 4.0 66 2.7 CALM 0 0 0 0 1024.1 1024.0 0.0
30/07:30am 8.0 6.5 2.9 70 2.2 CALM 0 0 0 0 1023.7 - 0.0
30/07:00am 6.0 4.3 1.7 74 1.7 CALM 0 0 0 0 1023.5 1023.4 0.0
30/06:30am 6.2 4.4 1.5 72 1.9 CALM 0 0 0 0 1023.0 - 0.0
30/06:00am 7.3 5.5 3.2 75 1.7 E 2 4 1 2 1022.6 1022.4 0.0
30/05:30am 6.6 3.3 2.3 74 1.8 SSE 9 13 5 7 1022.6 - 0.0
30/05:00am 6.3 3.6 2.8 78 1.5 SSE 6 7 3 4 1022.0 1021.8 0.0
30/04:30am 8.1 6.3 3.6 73 2.0 SE 2 4 1 2 1021.7 - 0.0
30/04:00am 7.7 5.8 3.0 72 2.0 SSE 2 4 1 2 1021.7 1021.5 0.0
30/03:30am 8.9 6.8 3.9 71 2.2 SE 4 7 2 4 1021.5 - 0.0
30/03:00am 8.9 6.6 4.7 75 1.9 SE 6 7 3 4 1021.5 1021.3 0.0
30/02:30am 8.6 6.3 3.0 68 2.4 SSW 4 6 2 3 1021.5 - 0.0
30/02:00am 9.8 7.8 4.6 70 2.3 S 4 6 2 3 1021.3 1021.2 0.0
30/01:30am 9.3 7.5 3.7 68 2.5 SW 2 4 1 2 1021.5 - 0.0
30/01:00am 9.0 7.6 3.4 68 2.4 CALM 0 0 0 0 1021.5 1021.3 0.0
30/12:30am 12.0 10.0 4.5 60 3.4 N 4 6 2 3 1021.3 - 0.0
30/12:00am 12.8 10.6 5.5 61 3.4 NNE 6 7 3 4 1021.3 1021.2 0.0
 
Date/Time
EST
Temp
°C
App
Temp
°C
Dew
Point
Rel
Hum
%
Delta-T
°C
Wind Press
QNH
hPa
Press
MSL
hPa
Rain
since 9 am
mm
Dir
 
Spd
km/h
Gust
km/h
Spd
kts
Gust
kts
29/11:30pm 11.8 10.5 4.3 60 3.4 CALM 0 6 0 3 1021.1 - 0.0
29/11:00pm 11.3 8.9 2.3 54 3.9 N 4 4 2 2 1021.2 1021.1 0.0
29/10:30pm 14.7 13.7 5.5 54 4.4 CALM 0 0 0 0 1021.3 - 0.0
29/10:00pm 13.2 11.4 3.6 52 4.3 NW 2 6 1 3 1021.6 1021.4 0.0
29/09:30pm 17.6 14.9 5.5 45 5.9 NE 9 11 5 6 1021.3 - 0.0
29/09:00pm 17.7 14.9 5.0 43 6.1 ENE 9 11 5 6 1021.2 1021.1 0.0
29/08:30pm 17.7 15.9 5.3 44 6.1 N 4 6 2 3 1020.8 - 0.0
29/08:00pm 18.5 16.6 5.0 41 6.6 N 4 6 2 3 1020.8 1020.7 0.0
29/07:30pm 18.8 16.3 4.6 39 6.9 NNE 7 7 4 4 1020.6 - 0.0
29/07:00pm 19.6 17.3 4.9 38 7.2 N 6 7 3 4 1020.3 1020.2 0.0
29/06:30pm 20.9 18.6 4.9 35 7.9 NNE 6 6 3 3 1020.0 - 0.0
29/06:00pm 21.9 20.0 4.9 33 8.5 N 4 6 2 3 1019.7 1019.6 0.0
29/05:30pm 24.0 22.9 4.9 29 9.7 CALM 0 0 0 0 1019.4 - 0.0
29/05:00pm 25.3 24.4 6.0 29 10.0 CALM 0 0 0 0 1019.3 1019.2 0.0
29/04:30pm 25.1 23.3 5.3 28 10.2 NNE 4 7 2 4 1019.3 - 0.0
29/04:00pm 26.0 24.6 5.6 27 10.6 NW 2 6 1 3 1019.2 1019.0 0.0

Other Formats:

Comma delimited format used in spreadsheet applications
http://www.bom.gov.au/fwo/IDQ60801/IDQ60801.94396.axf

JavaScript Object Notation format (JSON) in row-major order
http://www.bom.gov.au/fwo/IDQ60801/IDQ60801.94396.json